Main page
METAR-TAF:

METAR-TAF

Airports :

Mansfield Lahm Regional Airport

Mansfield, Ohio, United States

latitude: 40-49-13N, longitude: 082-31-04W, elevation: 1296 ft

Current weather observation

The report was made 33 minutes ago, at 21:52 UTC
Wind 10 mph from the North/Northwest
Temperature 21°F
Humidity 58%
Pressure 30.50 in. Hg
Visibility: 10 miles
Scattered clouds at a height of 3300 ft

METAR: KMFD 202152Z 34009KT 10SM SCT033 M06/M13 A3050 RMK AO2 SLP349 T10561128 $

Time: 17:25 (22:25 UTC)

Forecast

The report was made 1 hour and 29 minutes ago, at 20:56 UTC
Forecast valid from 20 at 21 UTC to 21 at 18 UTC
Wind 12 mph from the North
Visibility: 6 miles
Scattered clouds at a height of 3500 ft
Temporary
from 20 at 21 UTC to 20 at 23 UTC
Broken clouds at a height of 3500 ft
From 21 at 0100 UTC
Wind 5 mph from the Northwest
Visibility: 6 miles
Clear sky

TAF: KMFD 202056Z 2021/2118 35010KT P6SM SCT035 TEMPO 2021/2023 BKN035 FM210100 31004KT P6SM SKC

Weather observations and forecasts of more than 4000 airports (METAR and TAF reports).

The available stations are represented by yellow and red dots on the map.

Hover mouse over dot to see the name of the station.

Then click to see weather observations and forecasts.

To change the map : click on the green buttons with a black cross to zoom in, on the green button with a dash to zoom out, or on the green arrows for adjacent maps.


METAR-TAF: